Time;durP1;ratioP1;P1;durP2;ratioP2;P2;SDS_P1;SDS_P2;PMS_P1;PMS_P2;Temp;Humidity;BMP_temperature;BMP_pressure;BME280_temperature;BME280_humidity;BME280_pressure;Samples;Min_cycle;Max_cycle;Signal;HPM_P1;HPM_P2
2021/01/31 00:00:28;;;;;;;54.10;23.17;;;3.60;81.30;;;;;;4936637;29;20027;-83
2021/01/31 00:02:54;;;;;;;56.17;22.50;;;3.60;81.40;;;;;;4936529;29;20513;-83
2021/01/31 00:05:22;;;;;;;49.72;22.00;;;3.60;81.40;;;;;;4937075;29;20024;-83
2021/01/31 00:07:48;;;;;;;52.03;23.55;;;3.70;81.40;;;;;;4935988;29;20383;-83
2021/01/31 00:10:16;;;;;;;52.92;23.25;;;3.60;81.00;;;;;;4936542;29;20051;-83
2021/01/31 00:12:42;;;;;;;49.80;22.75;;;3.60;81.10;;;;;;4936763;29;20020;-83
2021/01/31 00:15:09;;;;;;;55.90;22.60;;;3.60;81.10;;;;;;4936494;29;20091;-82
2021/01/31 00:20:58;;;;;;;51.30;23.25;;;3.50;80.90;;;;;;4936637;29;20066;-83
2021/01/31 00:23:24;;;;;;;55.55;24.10;;;3.50;81.10;;;;;;4936322;29;20031;-83
2021/01/31 00:25:50;;;;;;;49.53;19.90;;;3.50;81.20;;;;;;4936875;29;20042;-83
2021/01/31 00:28:18;;;;;;;51.67;22.50;;;3.40;81.10;;;;;;4936965;29;20034;-82
2021/01/31 00:30:45;;;;;;;48.25;20.35;;;3.40;81.20;;;;;;4936364;29;20378;-83
2021/01/31 00:33:20;;;;;;;53.55;22.75;;;3.40;81.50;;;;;;4935320;29;20106;-82
2021/01/31 00:35:47;;;;;;;57.25;25.10;;;3.40;81.60;;;;;;4938836;29;20086;-83
2021/01/31 00:38:15;;;;;;;57.75;25.75;;;3.40;81.60;;;;;;4939725;29;20036;-83
2021/01/31 00:40:42;;;;;;;53.88;23.45;;;3.40;81.80;;;;;;4938749;29;20032;-83
2021/01/31 00:43:09;;;;;;;52.60;22.48;;;3.40;81.70;;;;;;4939385;29;20031;-83
2021/01/31 00:45:35;;;;;;;56.15;23.02;;;3.40;81.50;;;;;;4939145;29;20477;-83
2021/01/31 00:48:01;;;;;;;53.35;23.27;;;3.40;81.80;;;;;;4939730;29;20043;-83
2021/01/31 00:50:32;;;;;;;49.97;21.85;;;3.40;81.80;;;;;;4940031;29;20039;-83
2021/01/31 00:52:58;;;;;;;48.72;21.90;;;3.40;81.70;;;;;;4939497;29;20019;-83
2021/01/31 00:55:24;;;;;;;57.70;21.75;;;3.40;81.60;;;;;;4939349;29;20052;-83
2021/01/31 00:57:50;;;;;;;51.70;21.77;;;3.40;81.80;;;;;;4938055;29;20031;-83
2021/01/31 01:00:16;;;;;;;46.13;20.27;;;3.30;81.80;;;;;;4939086;29;20394;-83
2021/01/31 01:02:42;;;;;;;44.33;20.63;;;3.40;81.90;;;;;;4939009;29;20030;-83
2021/01/31 01:05:09;;;;;;;48.97;21.42;;;3.30;81.80;;;;;;4936211;29;20389;-82
2021/01/31 01:07:34;;;;;;;48.72;21.83;;;3.30;82.20;;;;;;4928153;29;20168;-83
2021/01/31 01:10:00;;;;;;;47.25;20.05;;;3.40;82.20;;;;;;4927390;29;20107;-83
2021/01/31 01:12:26;;;;;;;49.45;19.92;;;3.40;82.00;;;;;;4927991;29;20028;-82
2021/01/31 01:14:51;;;;;;;41.80;19.48;;;3.40;82.00;;;;;;4928046;29;20034;-83
2021/01/31 01:17:17;;;;;;;44.45;20.50;;;3.40;82.10;;;;;;4928942;29;20478;-83
2021/01/31 01:19:43;;;;;;;41.10;18.75;;;3.40;82.10;;;;;;4927661;29;20079;-83
2021/01/31 01:22:08;;;;;;;47.92;21.92;;;3.40;82.20;;;;;;4928890;29;20028;-83
2021/01/31 01:24:34;;;;;;;43.03;20.02;;;3.40;82.20;;;;;;4928897;29;20030;-83
2021/01/31 01:27:02;;;;;;;43.30;20.80;;;3.40;82.10;;;;;;4929632;29;20087;-83
2021/01/31 01:29:27;;;;;;;41.75;17.98;;;3.40;82.10;;;;;;4927704;29;20050;-83
2021/01/31 01:31:53;;;;;;;47.25;19.38;;;3.50;82.10;;;;;;4933074;29;20540;-83
2021/01/31 01:34:19;;;;;;;40.80;19.15;;;3.50;82.20;;;;;;4927473;29;20036;-83
2021/01/31 01:36:44;;;;;;;39.85;18.10;;;3.50;82.20;;;;;;4943960;29;20059;-83
2021/01/31 01:39:10;;;;;;;44.28;19.05;;;3.50;82.10;;;;;;4926053;29;20046;-84
2021/01/31 01:41:44;;;;;;;40.28;18.40;;;3.50;82.10;;;;;;4928549;29;20032;-84
2021/01/31 01:44:11;;;;;;;44.95;19.92;;;3.50;82.20;;;;;;4934994;29;20031;-83
2021/01/31 01:46:45;;;;;;;41.88;19.48;;;3.50;82.20;;;;;;4926228;29;20110;-83
2021/01/31 01:49:24;;;;;;;39.10;19.00;;;3.50;82.40;;;;;;4928416;29;20060;-82
2021/01/31 01:51:57;;;;;;;45.03;19.75;;;3.60;82.40;;;;;;4927722;29;20035;-83
2021/01/31 01:54:47;;;;;;;42.30;19.40;;;3.60;82.20;;;;;;4926857;29;20076;-84
2021/01/31 01:57:21;;;;;;;38.40;18.33;;;3.60;82.40;;;;;;4927890;29;20031;-83
2021/01/31 01:59:50;;;;;;;41.05;18.08;;;3.60;82.80;;;;;;4929407;29;20079;-83
2021/01/31 02:02:26;;;;;;;38.78;19.13;;;3.60;82.00;;;;;;4925556;29;20024;-83
2021/01/31 02:04:53;;;;;;;39.45;18.83;;;3.60;82.00;;;;;;4927813;29;20062;-84
2021/01/31 02:07:19;;;;;;;41.95;19.00;;;3.60;81.90;;;;;;4933054;29;20031;-83
2021/01/31 02:09:49;;;;;;;38.47;18.33;;;3.60;82.00;;;;;;4927595;29;20076;-83
2021/01/31 02:12:17;;;;;;;32.40;15.68;;;3.70;82.00;;;;;;4926651;29;20020;-83
2021/01/31 02:14:45;;;;;;;39.25;17.50;;;3.70;81.70;;;;;;4928446;29;20020;-83
2021/01/31 02:17:34;;;;;;;36.83;17.40;;;3.60;81.40;;;;;;4921187;29;20048;-84
2021/01/31 02:20:31;;;;;;;38.25;17.02;;;3.60;81.20;;;;;;4918958;29;20123;-84
2021/01/31 02:23:23;;;;;;;35.08;16.08;;;3.50;80.70;;;;;;4919389;29;20059;-84
2021/01/31 02:26:09;;;;;;;31.52;16.88;;;3.40;80.70;;;;;;4918889;29;20039;-84
2021/01/31 02:28:55;;;;;;;28.52;15.50;;;3.40;81.10;;;;;;4918677;29;20027;-83
2021/01/31 02:31:43;;;;;;;29.70;15.20;;;3.40;81.00;;;;;;4918862;29;20072;-83
2021/01/31 02:34:51;;;;;;;29.83;14.30;;;3.30;81.10;;;;;;4917893;29;20039;-83
2021/01/31 02:37:42;;;;;;;30.67;14.82;;;3.30;81.20;;;;;;4913620;29;20111;-82
2021/01/31 02:40:15;;;;;;;30.55;15.32;;;3.30;81.40;;;;;;4919434;29;20028;-83
2021/01/31 02:42:48;;;;;;;24.23;12.23;;;3.30;81.60;;;;;;4918996;29;20120;-83
2021/01/31 02:45:31;;;;;;;22.13;13.00;;;3.20;81.80;;;;;;4918699;29;20032;-82
2021/01/31 02:48:34;;;;;;;22.95;11.10;;;3.20;82.30;;;;;;4917853;29;20395;-84
2021/01/31 02:51:31;;;;;;;26.90;11.23;;;3.20;83.20;;;;;;4918216;29;20048;-84
2021/01/31 02:54:14;;;;;;;19.50;10.27;;;3.10;83.90;;;;;;4910386;29;20051;-84
2021/01/31 02:56:55;;;;;;;18.60;10.73;;;3.10;84.30;;;;;;4919171;29;20096;-84
2021/01/31 02:59:32;;;;;;;18.45;10.57;;;3.10;84.60;;;;;;4918268;29;20028;-84
2021/01/31 03:02:23;;;;;;;19.98;11.20;;;3.10;84.60;;;;;;4925224;29;20020;-84
2021/01/31 03:04:53;;;;;;;18.65;9.93;;;3.10;84.90;;;;;;4938574;29;20498;-85
2021/01/31 03:07:24;;;;;;;18.95;10.30;;;3.00;85.00;;;;;;4939055;29;20012;-80
2021/01/31 03:10:17;;;;;;;22.00;11.65;;;3.00;85.60;;;;;;4939784;29;20028;-84
2021/01/31 03:12:53;;;;;;;21.60;11.40;;;3.00;86.10;;;;;;4925343;29;20493;-85
2021/01/31 03:15:26;;;;;;;24.15;11.82;;;2.90;86.00;;;;;;4918398;29;20037;-84
2021/01/31 03:18:19;;;;;;;24.63;12.95;;;2.90;86.10;;;;;;4918719;29;20036;-85
2021/01/31 03:21:03;;;;;;;22.92;11.52;;;2.90;86.50;;;;;;4918451;29;20035;-84
2021/01/31 03:24:02;;;;;;;27.77;14.48;;;2.90;86.20;;;;;;4918328;29;20032;-84
2021/01/31 03:26:40;;;;;;;33.67;15.55;;;2.80;86.10;;;;;;4897708;29;20044;-85
2021/01/31 03:29:06;;;;;;;34.40;14.57;;;2.70;86.10;;;;;;4918228;29;20068;-85
2021/01/31 03:31:36;;;;;;;30.83;15.57;;;2.70;85.30;;;;;;4918249;29;20028;-84
2021/01/31 03:34:11;;;;;;;29.48;14.70;;;2.60;85.10;;;;;;4918210;29;20032;-85
2021/01/31 03:36:42;;;;;;;32.65;15.13;;;2.40;84.70;;;;;;4917805;29;20043;-85
2021/01/31 03:39:10;;;;;;;34.45;14.40;;;2.30;84.70;;;;;;4918435;29;20067;-85
2021/01/31 03:41:36;;;;;;;32.40;15.57;;;2.20;84.80;;;;;;4917930;29;20063;-85
2021/01/31 03:44:02;;;;;;;29.27;14.60;;;2.00;84.50;;;;;;4918311;29;20463;-86
2021/01/31 03:46:54;;;;;;;34.80;14.88;;;1.90;85.00;;;;;;4917625;29;20107;-86
2021/01/31 03:49:46;;;;;;;30.08;13.68;;;1.80;85.10;;;;;;4917296;29;20573;-86
2021/01/31 03:52:12;;;;;;;27.27;13.48;;;1.70;84.90;;;;;;4916471;29;20079;-86
2021/01/31 03:54:37;;;;;;;27.23;13.43;;;1.60;84.50;;;;;;4917562;29;20103;-85
2021/01/31 03:57:33;;;;;;;26.13;12.10;;;1.50;85.00;;;;;;4917727;29;20037;-85
2021/01/31 04:00:13;;;;;;;30.50;12.35;;;1.40;85.10;;;;;;4912333;29;20051;-84
2021/01/31 04:02:47;;;;;;;23.02;12.27;;;1.30;84.90;;;;;;4917357;29;20467;-85
2021/01/31 04:05:15;;;;;;;27.50;13.57;;;1.20;84.50;;;;;;4917819;29;20155;-85
2021/01/31 04:07:44;;;;;;;28.30;13.30;;;1.10;84.40;;;;;;4916421;29;20367;-85
2021/01/31 04:10:10;;;;;;;29.10;12.93;;;1.00;84.30;;;;;;4920347;29;20040;-85
2021/01/31 04:12:41;;;;;;;28.05;12.52;;;0.90;84.60;;;;;;4919976;29;20036;-85
2021/01/31 04:15:21;;;;;;;31.98;14.68;;;0.90;84.60;;;;;;4921483;29;20029;-84
2021/01/31 04:17:49;;;;;;;29.35;13.80;;;0.80;84.70;;;;;;4921734;29;20475;-84
2021/01/31 04:20:15;;;;;;;29.08;14.68;;;0.70;84.80;;;;;;4921543;29;20455;-85
2021/01/31 04:22:41;;;;;;;32.15;14.68;;;0.60;85.20;;;;;;4921286;29;20028;-83
2021/01/31 04:25:08;;;;;;;31.80;13.23;;;0.60;85.00;;;;;;4921058;29;20032;-85
2021/01/31 04:27:34;;;;;;;28.63;13.95;;;0.50;85.20;;;;;;4919545;29;20064;-84
2021/01/31 04:30:00;;;;;;;30.08;13.45;;;0.50;85.40;;;;;;4919569;29;20035;-85
2021/01/31 04:32:26;;;;;;;30.38;13.82;;;0.50;86.00;;;;;;4920854;29;20132;-84
2021/01/31 04:34:51;;;;;;;28.42;14.10;;;0.50;86.00;;;;;;4921333;29;20486;-84
2021/01/31 04:37:20;;;;;;;35.47;16.63;;;0.50;85.90;;;;;;4919796;29;20032;-85
2021/01/31 04:39:47;;;;;;;30.90;15.20;;;0.50;86.20;;;;;;4920652;29;20451;-85
2021/01/31 04:42:18;;;;;;;35.65;16.23;;;0.50;86.70;;;;;;4921412;29;20031;-85
2021/01/31 04:44:44;;;;;;;33.63;15.45;;;0.60;87.00;;;;;;4920186;29;20058;-85
2021/01/31 04:47:26;;;;;;;27.98;14.90;;;0.60;86.10;;;;;;4920597;29;20122;-84
2021/01/31 04:50:07;;;;;;;32.05;14.70;;;0.60;86.00;;;;;;4919443;29;20446;-82
2021/01/31 04:52:53;;;;;;;31.42;14.95;;;0.60;86.60;;;;;;4920564;29;20032;-82
2021/01/31 04:55:52;;;;;;;32.13;14.70;;;0.60;86.20;;;;;;4920483;29;20491;-82
2021/01/31 04:58:27;;;;;;;24.25;13.10;;;0.60;86.20;;;;;;4919625;29;20039;-80
2021/01/31 05:00:55;;;;;;;25.80;13.07;;;0.60;86.20;;;;;;4920631;29;20080;-85
2021/01/31 05:03:23;;;;;;;30.95;14.43;;;0.60;85.90;;;;;;4919823;29;20033;-84
2021/01/31 05:05:56;;;;;;;27.42;13.45;;;0.60;85.90;;;;;;4920697;29;20435;-84
2021/01/31 05:08:27;;;;;;;25.52;13.55;;;0.50;86.10;;;;;;4919466;29;20462;-84
2021/01/31 05:10:57;;;;;;;27.48;13.05;;;0.50;86.40;;;;;;4920937;29;20107;-84
2021/01/31 05:13:34;;;;;;;23.92;12.43;;;0.50;86.60;;;;;;4920628;29;20031;-84
2021/01/31 05:16:12;;;;;;;22.00;10.30;;;0.60;86.80;;;;;;4920165;29;20211;-84
2021/01/31 05:18:44;;;;;;;19.80;10.68;;;0.60;86.70;;;;;;4919943;29;20119;-84
2021/01/31 05:21:12;;;;;;;21.23;10.98;;;0.60;86.10;;;;;;4919597;29;20498;-84
2021/01/31 05:23:41;;;;;;;23.13;11.35;;;0.60;86.50;;;;;;4920074;29;20068;-84
2021/01/31 05:26:09;;;;;;;19.92;11.30;;;0.60;86.80;;;;;;4919940;29;20036;-84
2021/01/31 05:28:39;;;;;;;21.17;9.75;;;0.70;87.20;;;;;;4920178;29;20032;-82
2021/01/31 05:31:05;;;;;;;18.08;8.85;;;0.80;86.70;;;;;;4919759;29;20060;-85
2021/01/31 05:33:57;;;;;;;18.95;10.23;;;0.70;86.20;;;;;;4919290;29;20031;-85
2021/01/31 05:36:27;;;;;;;18.95;9.77;;;0.70;86.10;;;;;;4919601;29;20040;-85
2021/01/31 05:38:52;;;;;;;20.30;10.23;;;0.70;86.70;;;;;;4920275;29;20398;-85
2021/01/31 05:41:47;;;;;;;19.80;10.43;;;0.80;87.00;;;;;;4920114;29;20028;-84
2021/01/31 05:44:15;;;;;;;18.88;9.20;;;0.90;86.80;;;;;;4920510;29;20419;-84
2021/01/31 05:46:48;;;;;;;19.13;8.48;;;0.80;86.30;;;;;;4918952;29;20036;-85
2021/01/31 05:49:32;;;;;;;16.77;8.68;;;0.90;86.60;;;;;;4919307;29;20080;-85
2021/01/31 05:51:57;;;;;;;13.45;7.43;;;0.90;86.70;;;;;;4918726;29;20419;-85
2021/01/31 05:54:33;;;;;;;14.10;7.30;;;0.90;86.30;;;;;;4919127;29;20028;-85
2021/01/31 05:56:59;;;;;;;17.00;8.93;;;0.90;85.90;;;;;;4919156;29;20040;-84
2021/01/31 05:59:40;;;;;;;13.75;7.18;;;0.90;86.30;;;;;;4918868;29;20526;-84
2021/01/31 06:02:06;;;;;;;17.00;8.32;;;0.90;86.30;;;;;;4917870;29;20085;-85
2021/01/31 06:04:31;;;;;;;13.50;7.60;;;0.90;86.50;;;;;;4918860;29;20430;-86
2021/01/31 06:07:14;;;;;;;16.08;8.38;;;1.00;86.90;;;;;;4918467;29;20092;-85
2021/01/31 06:09:46;;;;;;;16.30;8.07;;;1.00;87.00;;;;;;4919004;29;20024;-85
2021/01/31 06:12:24;;;;;;;15.77;8.73;;;1.10;86.90;;;;;;4918718;29;20028;-85
2021/01/31 06:15:00;;;;;;;16.40;8.25;;;1.10;86.70;;;;;;4918114;29;20149;-81
2021/01/31 06:17:30;;;;;;;10.13;7.38;;;1.20;87.00;;;;;;4918792;29;20119;-85
2021/01/31 06:19:59;;;;;;;10.63;6.30;;;1.20;86.20;;;;;;4919026;29;20029;-82
2021/01/31 06:22:45;;;;;;;10.10;6.60;;;1.20;86.00;;;;;;4916854;29;20482;-80
2021/01/31 06:25:25;;;;;;;12.65;7.25;;;1.10;86.10;;;;;;4918981;29;20120;-85
2021/01/31 06:28:12;;;;;;;10.65;7.10;;;1.10;85.80;;;;;;4918894;29;20040;-87
2021/01/31 06:31:04;;;;;;;13.57;7.93;;;1.20;86.50;;;;;;4916698;29;20131;-87
2021/01/31 06:33:30;;;;;;;16.35;8.10;;;1.20;86.60;;;;;;4890710;29;20059;-83
2021/01/31 06:36:12;;;;;;;10.82;6.53;;;1.20;86.60;;;;;;4932430;29;20032;-85
2021/01/31 06:39:11;;;;;;;12.15;7.13;;;1.30;86.70;;;;;;4918328;29;20103;-83
2021/01/31 06:42:12;;;;;;;11.45;6.25;;;1.30;86.70;;;;;;4875801;29;20127;-84
2021/01/31 06:44:57;;;;;;;11.35;7.07;;;1.30;86.50;;;;;;4918896;29;20032;-85
2021/01/31 06:47:46;;;;;;;12.77;7.10;;;1.40;86.60;;;;;;4918364;29;20043;-85
2021/01/31 06:50:31;;;;;;;12.20;6.65;;;1.40;86.50;;;;;;4917972;29;20039;-84
2021/01/31 06:53:30;;;;;;;10.60;6.15;;;1.40;86.10;;;;;;4932498;29;20036;-84
2021/01/31 06:56:19;;;;;;;10.95;6.43;;;1.40;86.60;;;;;;4918939;29;20055;-85
2021/01/31 06:59:03;;;;;;;10.88;6.30;;;1.50;86.70;;;;;;4918164;29;20398;-84
2021/01/31 07:01:40;;;;;;;14.05;7.43;;;1.60;86.90;;;;;;4916934;29;20024;-85
2021/01/31 07:04:30;;;;;;;17.13;7.68;;;1.60;87.00;;;;;;4917820;29;20028;-85
2021/01/31 07:07:14;;;;;;;12.57;6.75;;;1.70;87.40;;;;;;4916857;29;20032;-88
2021/01/31 07:10:13;;;;;;;13.20;7.35;;;1.80;87.50;;;;;;4918205;29;20040;-85
2021/01/31 07:12:54;;;;;;;10.27;6.50;;;1.90;86.50;;;;;;4884930;29;20492;-84
2021/01/31 07:15:21;;;;;;;12.63;7.65;;;1.90;85.90;;;;;;4919970;29;20031;-83
2021/01/31 07:18:01;;;;;;;12.68;7.75;;;1.90;85.90;;;;;;4928790;29;20032;-85
2021/01/31 07:20:43;;;;;;;12.48;7.57;;;1.80;85.90;;;;;;4927522;29;20028;-84
2021/01/31 07:23:20;;;;;;;11.82;7.25;;;1.90;86.10;;;;;;4927493;29;20636;-85
2021/01/31 07:25:52;;;;;;;13.05;7.72;;;1.90;86.20;;;;;;4927066;29;20024;-86
2021/01/31 07:28:28;;;;;;;12.18;7.45;;;1.90;85.90;;;;;;4928760;29;20028;-86
2021/01/31 07:30:56;;;;;;;13.32;7.80;;;2.00;86.00;;;;;;4936243;29;20083;-85
2021/01/31 07:33:26;;;;;;;11.52;7.18;;;2.00;85.80;;;;;;4936177;29;20162;-84
2021/01/31 07:36:07;;;;;;;15.05;7.88;;;2.00;86.70;;;;;;4935589;29;20050;-84
2021/01/31 07:38:47;;;;;;;13.18;7.78;;;2.10;86.70;;;;;;4936404;29;20446;-83
2021/01/31 07:41:14;;;;;;;9.40;6.75;;;2.20;87.10;;;;;;4936580;29;20042;-85
2021/01/31 07:43:42;;;;;;;12.65;7.97;;;2.40;88.10;;;;;;4936147;29;20047;-85
2021/01/31 07:46:13;;;;;;;11.73;7.13;;;2.50;86.30;;;;;;4939739;29;20378;-86
2021/01/31 07:48:44;;;;;;;11.68;7.25;;;2.50;85.80;;;;;;4939859;29;20019;-85
2021/01/31 07:51:12;;;;;;;13.68;8.05;;;2.50;85.80;;;;;;4941014;29;20486;-86
2021/01/31 07:53:41;;;;;;;13.52;7.22;;;2.60;86.70;;;;;;4938375;29;20098;-85
2021/01/31 07:56:37;;;;;;;13.88;6.70;;;2.70;86.10;;;;;;4940151;29;20055;-85
2021/01/31 07:59:08;;;;;;;11.75;7.25;;;2.80;85.90;;;;;;4939643;29;20039;-85
2021/01/31 08:01:40;;;;;;;11.48;7.70;;;2.70;84.40;;;;;;4939190;29;20070;-86
2021/01/31 08:04:15;;;;;;;12.38;6.82;;;2.70;84.90;;;;;;4939451;29;20032;-85
2021/01/31 08:06:46;;;;;;;13.35;8.65;;;2.70;86.40;;;;;;4939374;29;20036;-85
2021/01/31 08:09:27;;;;;;;12.95;7.90;;;2.90;87.40;;;;;;4938131;29;20024;-85
2021/01/31 08:12:08;;;;;;;14.30;7.60;;;3.10;86.90;;;;;;4939957;29;20027;-86
2021/01/31 08:15:10;;;;;;;11.73;7.03;;;3.20;87.70;;;;;;4940246;29;20490;-84
2021/01/31 08:17:53;;;;;;;11.80;7.28;;;3.40;87.00;;;;;;4940558;29;20028;-84
2021/01/31 08:20:24;;;;;;;13.25;7.15;;;3.60;87.50;;;;;;4939809;29;20035;-86
2021/01/31 08:22:50;;;;;;;13.73;7.65;;;3.90;87.60;;;;;;4938884;29;20040;-85
2021/01/31 08:25:16;;;;;;;12.88;7.32;;;4.10;88.10;;;;;;4938332;29;20064;-85
2021/01/31 08:27:42;;;;;;;12.73;7.10;;;4.60;89.00;;;;;;4940045;29;20429;-86
2021/01/31 08:30:13;;;;;;;14.15;7.30;;;5.30;91.00;;;;;;4926125;29;20036;-85
2021/01/31 08:32:57;;;;;;;11.93;7.55;;;6.10;91.00;;;;;;4920322;29;20115;-85
2021/01/31 08:35:26;;;;;;;13.60;7.85;;;6.70;90.50;;;;;;4920953;29;20039;-85
2021/01/31 08:38:13;;;;;;;12.82;7.50;;;7.40;90.70;;;;;;4921069;29;20044;-86
2021/01/31 08:40:40;;;;;;;11.60;7.15;;;7.80;89.50;;;;;;4935546;29;20140;-85
2021/01/31 08:43:10;;;;;;;13.13;8.30;;;8.00;87.60;;;;;;4920365;29;20171;-88
2021/01/31 08:45:43;;;;;;;10.82;6.82;;;8.30;87.30;;;;;;4920102;29;20087;-85
2021/01/31 08:48:09;;;;;;;10.95;7.55;;;8.50;85.90;;;;;;4919893;29;20545;-85
2021/01/31 08:50:34;;;;;;;11.13;7.30;;;8.90;84.30;;;;;;4918281;29;20163;-85
2021/01/31 08:53:04;;;;;;;10.93;6.50;;;8.70;80.20;;;;;;4919961;29;20092;-85
2021/01/31 08:55:30;;;;;;;10.32;7.30;;;8.50;80.10;;;;;;4918994;29;20403;-84
2021/01/31 08:57:59;;;;;;;12.10;7.82;;;8.20;78.00;;;;;;4919516;29;20032;-85
2021/01/31 09:00:27;;;;;;;10.68;6.93;;;7.90;78.10;;;;;;4919510;29;20043;-85
2021/01/31 09:02:52;;;;;;;12.43;8.10;;;7.50;76.50;;;;;;4919409;29;20039;-85
2021/01/31 09:05:20;;;;;;;11.63;7.88;;;7.20;76.40;;;;;;4920346;29;20031;-83
2021/01/31 09:07:49;;;;;;;11.85;7.60;;;7.00;79.00;;;;;;4919137;29;20032;-82
2021/01/31 09:10:21;;;;;;;12.55;7.30;;;6.80;76.90;;;;;;4919615;29;20028;-88
2021/01/31 09:12:47;;;;;;;12.25;7.15;;;6.50;77.20;;;;;;4919431;29;20313;-86
2021/01/31 09:15:15;;;;;;;12.77;7.80;;;6.30;76.60;;;;;;4918255;29;20079;-85
2021/01/31 09:17:41;;;;;;;14.00;8.32;;;6.10;77.20;;;;;;4919206;29;20043;-84
2021/01/31 09:20:09;;;;;;;14.65;8.48;;;5.90;78.80;;;;;;4919546;29;20066;-85
2021/01/31 09:22:39;;;;;;;15.68;8.95;;;6.10;80.80;;;;;;4918967;29;20029;-85
2021/01/31 09:25:07;;;;;;;15.80;8.70;;;6.30;81.20;;;;;;4918047;29;20059;-84
2021/01/31 09:27:38;;;;;;;14.73;8.85;;;6.40;82.30;;;;;;4917809;29;20115;-86
2021/01/31 09:30:08;;;;;;;17.88;9.82;;;7.20;85.00;;;;;;4918916;29;20079;-85
2021/01/31 09:32:40;;;;;;;12.75;8.15;;;7.70;84.00;;;;;;4919223;29;20036;-85
2021/01/31 09:35:08;;;;;;;12.05;7.95;;;8.50;83.80;;;;;;4918755;29;20031;-84
2021/01/31 09:37:34;;;;;;;15.02;8.90;;;9.50;85.30;;;;;;4917756;29;20076;-85
2021/01/31 09:40:04;;;;;;;12.38;8.15;;;10.60;86.90;;;;;;4918546;29;20036;-86
2021/01/31 09:42:36;;;;;;;12.68;8.30;;;11.40;82.50;;;;;;4925378;29;20105;-84
2021/01/31 09:45:29;;;;;;;13.35;8.43;;;11.70;77.90;;;;;;4925524;29;20024;-84
2021/01/31 09:47:56;;;;;;;11.70;7.85;;;11.70;76.00;;;;;;4925845;29;20063;-85
2021/01/31 09:50:22;;;;;;;11.75;8.90;;;11.50;72.90;;;;;;4926839;29;20075;-83
2021/01/31 09:52:50;;;;;;;12.25;8.07;;;11.00;71.00;;;;;;4940883;29;20059;-84
2021/01/31 09:55:42;;;;;;;15.05;8.60;;;10.30;69.00;;;;;;4927236;29;20138;-85
2021/01/31 09:58:28;;;;;;;16.65;8.77;;;9.40;68.30;;;;;;4927865;29;20027;-86
2021/01/31 10:00:54;;;;;;;14.55;8.85;;;8.80;70.30;;;;;;4926482;29;20032;-85
2021/01/31 10:03:23;;;;;;;13.02;7.78;;;8.40;73.10;;;;;;4926669;29;20044;-85
2021/01/31 10:05:48;;;;;;;13.77;7.75;;;8.30;75.10;;;;;;4925401;29;20036;-85
2021/01/31 10:08:16;;;;;;;14.35;8.98;;;8.30;74.00;;;;;;4926306;29;20024;-85
2021/01/31 10:10:45;;;;;;;15.43;9.10;;;8.00;72.40;;;;;;4927421;29;20032;-84
2021/01/31 10:13:19;;;;;;;11.95;7.30;;;7.80;74.20;;;;;;4931747;29;20071;-85
2021/01/31 10:15:53;;;;;;;17.08;9.02;;;7.70;73.20;;;;;;4927802;29;20031;-84
2021/01/31 10:18:32;;;;;;;12.57;7.35;;;7.70;74.70;;;;;;4926673;29;20038;-84
2021/01/31 10:21:28;;;;;;;11.90;6.75;;;7.70;75.30;;;;;;4926363;29;20028;-84
2021/01/31 10:24:10;;;;;;;12.88;6.85;;;7.80;75.60;;;;;;4926234;29;20035;-85
2021/01/31 10:26:35;;;;;;;13.52;7.50;;;8.00;77.10;;;;;;4926356;29;20505;-85
2021/01/31 10:29:04;;;;;;;12.02;7.50;;;9.00;80.10;;;;;;4924012;29;20036;-85
2021/01/31 10:31:34;;;;;;;14.77;8.32;;;9.30;75.40;;;;;;4925501;29;20054;-84
2021/01/31 10:34:02;;;;;;;16.48;9.13;;;9.10;72.40;;;;;;4925747;29;20090;-84
2021/01/31 10:36:48;;;;;;;16.58;8.93;;;8.80;72.50;;;;;;4927002;29;20031;-87
2021/01/31 10:39:14;;;;;;;14.85;8.70;;;8.50;72.60;;;;;;4925706;29;20386;-79
2021/01/31 10:41:41;;;;;;;16.23;9.45;;;8.20;71.90;;;;;;4925179;29;20028;-80
2021/01/31 10:44:13;;;;;;;15.30;8.55;;;7.90;72.50;;;;;;4926955;29;20020;-79
2021/01/31 10:46:40;;;;;;;19.50;10.05;;;7.70;72.20;;;;;;4926267;29;20039;-80
2021/01/31 10:49:06;;;;;;;19.10;9.48;;;7.50;73.20;;;;;;4931898;29;20038;-78
2021/01/31 10:51:34;;;;;;;13.75;8.70;;;7.40;73.80;;;;;;4926781;29;20024;-79
2021/01/31 10:54:02;;;;;;;15.18;8.45;;;7.30;72.50;;;;;;4927189;29;20138;-80
2021/01/31 10:56:28;;;;;;;13.30;8.25;;;7.10;72.60;;;;;;4926697;29;20052;-80
2021/01/31 10:58:55;;;;;;;12.88;7.30;;;6.80;71.20;;;;;;4937511;29;20063;-80
2021/01/31 11:01:21;;;;;;;12.98;8.30;;;6.40;70.20;;;;;;4932442;29;20514;-81
2021/01/31 11:03:49;;;;;;;14.82;8.63;;;6.10;71.00;;;;;;4935765;29;20034;-79
2021/01/31 11:06:15;;;;;;;13.40;8.10;;;5.90;72.80;;;;;;4941690;29;20023;-79
2021/01/31 11:08:41;;;;;;;14.20;8.43;;;5.80;73.00;;;;;;4931948;29;20107;-79
2021/01/31 11:11:07;;;;;;;14.02;8.25;;;5.60;73.50;;;;;;4925293;29;20024;-80
2021/01/31 11:13:33;;;;;;;13.88;8.13;;;5.60;74.10;;;;;;4924735;29;20509;-79
2021/01/31 11:15:59;;;;;;;14.68;7.88;;;5.50;74.00;;;;;;4932048;29;20036;-79
2021/01/31 11:18:26;;;;;;;18.35;8.40;;;5.50;74.30;;;;;;4924282;29;20032;-79
2021/01/31 11:24:16;;;;;;;13.05;7.32;;;5.50;75.00;;;;;;4925571;29;20031;-80
2021/01/31 11:26:42;;;;;;;13.63;7.50;;;5.60;76.60;;;;;;4923026;29;20103;-80
2021/01/31 11:29:08;;;;;;;11.85;6.82;;;5.70;76.30;;;;;;4927389;29;20636;-79
2021/01/31 11:31:34;;;;;;;16.40;8.30;;;5.70;73.90;;;;;;4924813;29;20024;-80
2021/01/31 11:34:00;;;;;;;15.73;8.20;;;5.50;73.00;;;;;;4925827;29;20123;-80
2021/01/31 11:36:26;;;;;;;20.48;9.45;;;5.30;73.30;;;;;;4924319;29;20032;-80
2021/01/31 11:38:51;;;;;;;15.93;8.57;;;5.20;73.60;;;;;;4925731;29;20110;-80
2021/01/31 11:41:18;;;;;;;14.45;8.90;;;5.30;75.10;;;;;;4925625;29;20047;-79
2021/01/31 11:43:44;;;;;;;19.58;9.88;;;5.60;78.40;;;;;;4925245;29;20103;-79
2021/01/31 11:46:10;;;;;;;13.10;7.80;;;6.10;78.80;;;;;;4926741;29;20031;-80
2021/01/31 11:48:36;;;;;;;14.75;7.93;;;6.30;75.50;;;;;;4925150;29;20027;-79
2021/01/31 11:51:02;;;;;;;16.67;8.43;;;6.20;73.90;;;;;;4925861;29;20171;-79
2021/01/31 11:53:28;;;;;;;16.52;9.45;;;6.20;73.60;;;;;;4924171;29;20052;-80
2021/01/31 11:55:54;;;;;;;13.25;7.95;;;6.10;73.30;;;;;;4924949;29;20051;-79
2021/01/31 11:58:19;;;;;;;16.02;7.68;;;6.20;75.20;;;;;;4924505;29;20554;-79
2021/01/31 12:00:45;;;;;;;14.82;8.15;;;6.40;74.10;;;;;;4932819;29;20051;-79
2021/01/31 12:03:12;;;;;;;12.82;8.23;;;6.80;76.00;;;;;;4934780;29;20114;-80
2021/01/31 12:05:38;;;;;;;12.63;8.30;;;7.40;76.50;;;;;;4935756;29;20034;-80
2021/01/31 12:08:04;;;;;;;12.90;8.38;;;8.20;77.00;;;;;;4929655;29;20024;-80
2021/01/31 12:10:32;;;;;;;12.55;7.10;;;8.50;73.30;;;;;;4924576;29;20028;-77
2021/01/31 12:12:58;;;;;;;12.93;7.43;;;8.30;70.90;;;;;;4924797;29;20024;-80
2021/01/31 12:15:24;;;;;;;14.20;8.13;;;8.00;69.70;;;;;;4939166;29;20024;-80
2021/01/31 12:17:50;;;;;;;14.93;8.43;;;7.60;69.90;;;;;;4922994;29;20040;-79
2021/01/31 12:20:17;;;;;;;14.30;8.52;;;7.40;71.20;;;;;;4925715;29;20055;-79
2021/01/31 12:22:43;;;;;;;13.82;8.68;;;7.40;71.40;;;;;;4922832;29;20039;-80
2021/01/31 12:25:13;;;;;;;28.85;12.30;;;7.20;69.90;;;;;;4924155;29;20038;-78
2021/01/31 12:27:39;;;;;;;18.42;10.05;;;7.00;69.90;;;;;;4921074;29;20029;-80
2021/01/31 12:30:05;;;;;;;13.90;8.10;;;6.80;69.80;;;;;;4932282;29;20024;-80
2021/01/31 12:32:33;;;;;;;15.02;8.85;;;6.60;70.40;;;;;;4926047;29;20032;-79
2021/01/31 12:34:59;;;;;;;19.30;10.35;;;6.40;70.40;;;;;;4920121;29;20087;-78
2021/01/31 12:37:25;;;;;;;19.15;9.93;;;6.30;71.10;;;;;;4920043;29;20036;-79
2021/01/31 12:39:51;;;;;;;25.20;12.15;;;6.30;72.30;;;;;;4919955;29;20028;-79
2021/01/31 12:42:17;;;;;;;36.53;15.80;;;6.40;72.20;;;;;;4922845;29;20115;-80
2021/01/31 12:44:42;;;;;;;21.30;11.05;;;6.30;72.00;;;;;;4928482;29;20042;-79
2021/01/31 12:47:10;;;;;;;26.35;13.07;;;6.30;71.90;;;;;;4929428;29;20414;-78
2021/01/31 12:49:36;;;;;;;21.73;11.40;;;6.20;72.40;;;;;;4926350;29;20039;-80
2021/01/31 12:52:01;;;;;;;23.08;11.35;;;6.20;72.40;;;;;;4919457;29;20052;-79
2021/01/31 12:54:27;;;;;;;23.05;10.95;;;6.20;72.30;;;;;;4919632;29;20111;-80
2021/01/31 12:56:53;;;;;;;16.27;8.32;;;6.10;72.30;;;;;;4919347;29;20131;-80
2021/01/31 12:59:18;;;;;;;22.70;11.25;;;6.00;71.90;;;;;;4919402;29;20032;-80
2021/01/31 13:01:44;;;;;;;19.77;9.98;;;5.90;71.90;;;;;;4919427;29;20044;-82
2021/01/31 13:04:10;;;;;;;15.63;9.10;;;5.80;71.80;;;;;;4919726;29;20486;-80
2021/01/31 13:06:36;;;;;;;22.63;11.13;;;5.60;71.30;;;;;;4918894;29;20080;-81
2021/01/31 13:09:03;;;;;;;17.52;10.02;;;5.40;70.80;;;;;;4919131;29;20028;-82
2021/01/31 13:11:28;;;;;;;16.98;8.63;;;5.20;71.60;;;;;;4919176;29;20032;-80
2021/01/31 13:13:54;;;;;;;15.15;8.50;;;5.10;72.40;;;;;;4919554;29;20046;-82
2021/01/31 13:16:20;;;;;;;16.80;9.05;;;5.10;73.00;;;;;;4918668;29;20096;-80